Time;durP1;ratioP1;P1;durP2;ratioP2;P2;SDS_P1;SDS_P2;PMS_P1;PMS_P2;Temp;Humidity;BMP_temperature;BMP_pressure;BME280_temperature;BME280_humidity;BME280_pressure;Samples;Min_cycle;Max_cycle;Signal;HPM_P1;HPM_P2
2023/05/12 00:02:17;;;;;;;;;;;;;;;19.95;nan;101935.31;5004861;28;19964;-89
2023/05/12 00:04:42;;;;;;;;;;;;;;;19.88;nan;101934.81;5006140;28;19921;-90
2023/05/12 00:07:07;;;;;;;;;;;;;;;19.80;nan;101929.97;5007703;28;19953;-91
2023/05/12 00:09:33;;;;;;;;;;;;;;;19.71;nan;101934.34;5006005;28;20419;-90
2023/05/12 00:11:58;;;;;;;;;;;;;;;19.67;nan;101933.31;5000583;28;20223;-91
2023/05/12 00:14:24;;;;;;;;;;;;;;;19.60;nan;101926.28;5007134;28;20008;-92
2023/05/12 00:16:50;;;;;;;;;;;;;;;19.58;nan;101928.47;5010001;28;20310;-91
2023/05/12 00:19:19;;;;;;;;;;;;;;;19.55;nan;101937.16;5009051;28;19941;-92
2023/05/12 00:21:45;;;;;;;;;;;;;;;19.51;nan;101929.81;5001592;28;19921;-90
2023/05/12 00:24:10;;;;;;;;;;;;;;;19.50;nan;101933.63;5004506;28;20389;-92
2023/05/12 00:26:35;;;;;;;;;;;;;;;19.48;nan;101931.19;5000721;28;20506;-90
2023/05/12 00:29:01;;;;;;;;;;;;;;;19.46;nan;101938.81;5000868;28;20431;-91
2023/05/12 00:31:26;;;;;;;;;;;;;;;19.42;nan;101937.75;5002092;28;19921;-91
2023/05/12 00:33:51;;;;;;;;;;;;;;;19.41;nan;101932.59;5004930;28;19925;-90
2023/05/12 00:36:17;;;;;;;;;;;;;;;19.41;nan;101938.03;5004195;28;19928;-91
2023/05/12 00:38:42;;;;;;;;;;;;;;;19.42;nan;101943.19;5001769;28;19937;-91
2023/05/12 00:41:07;;;;;;;;;;;;;;;19.41;nan;101938.03;5003276;28;19976;-90
2023/05/12 00:43:33;;;;;;;;;;;;;;;19.35;nan;101937.22;5007492;28;20290;-91
2023/05/12 00:45:59;;;;;;;;;;;;;;;19.27;nan;101935.09;5006920;28;20135;-90
2023/05/12 00:48:25;;;;;;;;;;;;;;;19.18;nan;101937.56;5001697;28;19925;-90
2023/05/12 00:50:50;;;;;;;;;;;;;;;19.13;nan;101945.72;5006416;28;19918;-91
2023/05/12 00:53:16;;;;;;;;;;;;;;;19.09;nan;101949.28;5005775;28;20148;-91
2023/05/12 00:55:41;;;;;;;;;;;;;;;19.02;nan;101939.50;5008534;28;20400;-91
2023/05/12 00:58:06;;;;;;;;;;;;;;;18.98;nan;101941.13;5010338;28;20323;-91
2023/05/12 01:00:32;;;;;;;;;;;;;;;18.96;nan;101946.03;5004698;28;19921;-91
2023/05/12 01:02:57;;;;;;;;;;;;;;;18.92;nan;101944.97;5003865;28;20377;-91
2023/05/12 01:05:26;;;;;;;;;;;;;;;18.87;nan;101939.56;5010314;28;20401;-91
2023/05/12 01:07:52;;;;;;;;;;;;;;;18.81;nan;101937.91;5008497;28;19925;-91
2023/05/12 01:10:21;;;;;;;;;;;;;;;18.75;nan;101943.63;5006718;28;20429;-91
2023/05/12 01:12:46;;;;;;;;;;;;;;;18.67;nan;101948.53;5004184;28;20304;-91
2023/05/12 01:15:11;;;;;;;;;;;;;;;18.63;nan;101943.91;5009878;28;19996;-91
2023/05/12 01:17:39;;;;;;;;;;;;;;;18.61;nan;101946.06;5002631;28;19918;-90
2023/05/12 01:20:06;;;;;;;;;;;;;;;18.57;nan;101947.69;4999622;28;20005;-91
2023/05/12 01:22:32;;;;;;;;;;;;;;;18.51;nan;101946.91;4999738;28;19918;-91
2023/05/12 01:25:02;;;;;;;;;;;;;;;18.49;nan;101945.50;5005034;28;19917;-91
2023/05/12 01:27:28;;;;;;;;;;;;;;;18.46;nan;101949.59;5010957;28;19921;-91
2023/05/12 01:29:55;;;;;;;;;;;;;;;18.40;nan;101946.06;5009747;28;19932;-91
2023/05/12 01:32:21;;;;;;;;;;;;;;;18.35;nan;101951.50;5009134;28;19928;-91
2023/05/12 01:34:46;;;;;;;;;;;;;;;18.29;nan;101951.75;5014575;28;19922;-91
2023/05/12 01:37:11;;;;;;;;;;;;;;;18.21;nan;101961.25;5003676;28;19924;-91
2023/05/12 01:39:37;;;;;;;;;;;;;;;18.16;nan;101958.53;5005016;28;19932;-90
2023/05/12 01:42:03;;;;;;;;;;;;;;;18.14;nan;101962.59;5011873;28;19929;-91
2023/05/12 01:44:28;;;;;;;;;;;;;;;18.10;nan;101959.59;5012032;28;20368;-91
2023/05/12 01:46:53;;;;;;;;;;;;;;;18.08;nan;101959.88;5004110;28;19920;-91
2023/05/12 01:49:19;;;;;;;;;;;;;;;18.05;nan;101957.69;5010270;28;19918;-91
2023/05/12 01:51:44;;;;;;;;;;;;;;;18.03;nan;101965.28;5007557;28;19913;-90
2023/05/12 01:54:09;;;;;;;;;;;;;;;18.00;nan;101960.41;5009972;28;20403;-91
2023/05/12 01:56:35;;;;;;;;;;;;;;;17.95;nan;101957.66;5008894;28;19913;-91
2023/05/12 01:59:00;;;;;;;;;;;;;;;17.91;nan;101963.91;5003057;28;19991;-91
2023/05/12 02:01:27;;;;;;;;;;;;;;;17.86;nan;101961.19;5007365;28;20377;-90
2023/05/12 02:03:55;;;;;;;;;;;;;;;17.81;nan;101962.81;5013286;28;19932;-91
2023/05/12 02:06:21;;;;;;;;;;;;;;;17.76;nan;101957.34;5008655;28;19917;-90
2023/05/12 02:08:47;;;;;;;;;;;;;;;17.73;nan;101963.31;5010970;28;20396;-91
2023/05/12 02:11:12;;;;;;;;;;;;;;;17.74;nan;101966.84;5001147;28;20412;-91
2023/05/12 02:13:37;;;;;;;;;;;;;;;17.72;nan;101964.38;5010223;28;20800;-91
2023/05/12 02:16:03;;;;;;;;;;;;;;;17.69;nan;101967.63;5010423;28;19928;-91
2023/05/12 02:18:28;;;;;;;;;;;;;;;17.65;nan;101969.22;5010752;28;19917;-91
2023/05/12 02:20:53;;;;;;;;;;;;;;;17.58;nan;101968.63;5004222;28;19952;-92
2023/05/12 02:23:19;;;;;;;;;;;;;;;17.51;nan;101974.31;5002523;28;19924;-91
2023/05/12 02:25:45;;;;;;;;;;;;;;;17.44;nan;101981.88;5003597;28;19925;-91
2023/05/12 02:28:10;;;;;;;;;;;;;;;17.39;nan;101976.41;5007199;28;19933;-91
2023/05/12 02:30:43;;;;;;;;;;;;;;;17.35;nan;101969.09;5006046;28;20000;-91
2023/05/12 02:33:08;;;;;;;;;;;;;;;17.27;nan;101977.72;5005352;28;20016;-92
2023/05/12 02:35:34;;;;;;;;;;;;;;;17.20;nan;101977.94;5006150;28;20154;-92
2023/05/12 02:37:59;;;;;;;;;;;;;;;17.15;nan;101976.03;5005921;28;19922;-92
2023/05/12 02:40:24;;;;;;;;;;;;;;;17.14;nan;101973.59;5009147;28;19925;-91
2023/05/12 02:42:50;;;;;;;;;;;;;;;17.11;nan;101966.81;5003067;28;20004;-91
2023/05/12 02:45:15;;;;;;;;;;;;;;;17.11;nan;101979.53;5013744;28;20036;-91
2023/05/12 02:47:41;;;;;;;;;;;;;;;17.10;nan;101977.91;5008757;28;19968;-89
2023/05/12 02:50:06;;;;;;;;;;;;;;;17.09;nan;101978.97;5008997;28;19921;-91
2023/05/12 02:52:32;;;;;;;;;;;;;;;17.06;nan;101983.03;5011710;28;19917;-91
2023/05/12 02:54:57;;;;;;;;;;;;;;;17.02;nan;101983.78;5008735;28;20419;-91
2023/05/12 02:57:22;;;;;;;;;;;;;;;16.98;nan;101996.22;4998973;28;19922;-91
2023/05/12 02:59:48;;;;;;;;;;;;;;;16.93;nan;101988.88;5006754;28;20172;-91
2023/05/12 03:02:13;;;;;;;;;;;;;;;16.90;nan;101986.72;5007230;28;20450;-91
2023/05/12 03:04:38;;;;;;;;;;;;;;;16.87;nan;101995.31;5002169;28;19929;-91
2023/05/12 03:07:04;;;;;;;;;;;;;;;16.80;nan;101990.16;5008248;28;19936;-90
2023/05/12 03:09:29;;;;;;;;;;;;;;;16.74;nan;101991.19;5016199;28;19974;-91
2023/05/12 03:11:54;;;;;;;;;;;;;;;16.68;nan;101991.38;5007258;28;19944;-91
2023/05/12 03:14:20;;;;;;;;;;;;;;;16.61;nan;102000.50;5004192;28;20389;-91
2023/05/12 03:16:45;;;;;;;;;;;;;;;16.58;nan;101992.91;5005943;28;19917;-90
2023/05/12 03:19:11;;;;;;;;;;;;;;;16.53;nan;101994.78;5011224;28;19922;-91
2023/05/12 03:21:36;;;;;;;;;;;;;;;16.48;nan;101998.22;5006325;28;19963;-91
2023/05/12 03:24:02;;;;;;;;;;;;;;;16.44;nan;101996.31;5005568;28;20120;-91
2023/05/12 03:26:27;;;;;;;;;;;;;;;16.39;nan;102005.19;5002756;28;20427;-91
2023/05/12 03:28:52;;;;;;;;;;;;;;;16.33;nan;102000.78;5014216;28;20023;-91
2023/05/12 03:31:18;;;;;;;;;;;;;;;16.28;nan;101992.63;5002113;28;19917;-91
2023/05/12 03:33:43;;;;;;;;;;;;;;;16.27;nan;101997.22;5001935;28;20400;-91
2023/05/12 03:36:09;;;;;;;;;;;;;;;16.29;nan;101994.28;5002173;28;20000;-91
2023/05/12 03:38:35;;;;;;;;;;;;;;;16.29;nan;102003.19;4997283;28;19922;-91
2023/05/12 03:41:07;;;;;;;;;;;;;;;16.28;nan;102004.28;5018895;28;19917;-91
2023/05/12 03:43:32;;;;;;;;;;;;;;;16.25;nan;102001.25;5009190;28;19979;-91
2023/05/12 03:45:57;;;;;;;;;;;;;;;16.23;nan;102004.22;5007625;28;20373;-91
2023/05/12 03:48:23;;;;;;;;;;;;;;;16.21;nan;102010.97;5011545;28;19921;-90
2023/05/12 03:50:48;;;;;;;;;;;;;;;16.14;nan;102008.44;5012965;28;19917;-91
2023/05/12 03:53:14;;;;;;;;;;;;;;;16.12;nan;102004.38;5008575;28;19960;-89
2023/05/12 03:55:39;;;;;;;;;;;;;;;16.12;nan;102007.06;5002640;28;21394;-91
2023/05/12 03:58:05;;;;;;;;;;;;;;;16.15;nan;102012.78;5012514;28;19961;-92
2023/05/12 04:00:31;;;;;;;;;;;;;;;16.21;nan;102014.47;5004531;28;19917;-91
2023/05/12 04:02:57;;;;;;;;;;;;;;;16.29;nan;102015.91;5008388;28;20483;-92
2023/05/12 04:05:22;;;;;;;;;;;;;;;16.36;nan;102008.41;5007492;28;20004;-91
2023/05/12 04:07:47;;;;;;;;;;;;;;;16.43;nan;102019.84;5004847;28;19925;-91
2023/05/12 04:10:13;;;;;;;;;;;;;;;16.50;nan;102022.31;5015029;28;19990;-91
2023/05/12 04:12:38;;;;;;;;;;;;;;;16.60;nan;102022.44;5006367;28;19922;-91
2023/05/12 04:15:04;;;;;;;;;;;;;;;16.69;nan;102025.50;5010234;28;19960;-91
2023/05/12 04:17:29;;;;;;;;;;;;;;;16.76;nan;102026.94;5019784;28;19917;-91
2023/05/12 04:19:54;;;;;;;;;;;;;;;16.84;nan;102025.63;5002384;28;19933;-91
2023/05/12 04:22:20;;;;;;;;;;;;;;;16.92;nan;102019.75;5014923;28;19964;-91
2023/05/12 04:24:45;;;;;;;;;;;;;;;17.00;nan;102027.38;5001816;28;19918;-90
2023/05/12 04:27:10;;;;;;;;;;;;;;;17.07;nan;102027.97;5006631;28;19933;-90
2023/05/12 04:29:36;;;;;;;;;;;;;;;17.14;nan;102027.75;5010528;28;19963;-91
2023/05/12 04:32:01;;;;;;;;;;;;;;;17.21;nan;102026.44;5009194;28;19964;-91
2023/05/12 04:34:26;;;;;;;;;;;;;;;17.32;nan;102019.19;5011111;28;20305;-91
2023/05/12 04:36:52;;;;;;;;;;;;;;;17.41;nan;102016.78;5004931;28;21342;-91
2023/05/12 04:39:17;;;;;;;;;;;;;;;17.51;nan;102036.63;5010350;28;19972;-92
2023/05/12 04:41:42;;;;;;;;;;;;;;;17.58;nan;102033.69;5003375;28;20405;-92
2023/05/12 04:44:08;;;;;;;;;;;;;;;17.66;nan;102035.09;5011935;28;20411;-91
2023/05/12 04:46:33;;;;;;;;;;;;;;;17.73;nan;102038.38;5004201;28;19964;-89
2023/05/12 04:48:59;;;;;;;;;;;;;;;17.85;nan;102038.19;5007496;28;19918;-92
2023/05/12 04:51:24;;;;;;;;;;;;;;;17.93;nan;102040.38;5015755;28;20028;-91
2023/05/12 04:53:50;;;;;;;;;;;;;;;18.04;nan;102048.28;5017675;28;19918;-91
2023/05/12 04:56:15;;;;;;;;;;;;;;;18.16;nan;102041.81;5003942;28;19917;-91
2023/05/12 04:58:40;;;;;;;;;;;;;;;18.27;nan;102046.97;5001869;28;19929;-92
2023/05/12 05:01:06;;;;;;;;;;;;;;;18.38;nan;102048.63;5010980;28;20217;-91
2023/05/12 05:03:31;;;;;;;;;;;;;;;18.51;nan;102046.50;5010207;28;19928;-91
2023/05/12 05:05:56;;;;;;;;;;;;;;;18.62;nan;102051.66;5004065;28;19928;-91
2023/05/12 05:08:22;;;;;;;;;;;;;;;18.73;nan;102052.50;5000630;28;19921;-91
2023/05/12 05:10:47;;;;;;;;;;;;;;;18.84;nan;102061.44;5003601;28;19929;-91
2023/05/12 05:13:12;;;;;;;;;;;;;;;18.93;nan;102054.41;5006802;28;20397;-91
2023/05/12 05:15:38;;;;;;;;;;;;;;;19.02;nan;102059.00;5005862;28;19930;-92
2023/05/12 05:18:04;;;;;;;;;;;;;;;19.12;nan;102063.63;5009365;28;19933;-92
2023/05/12 05:20:31;;;;;;;;;;;;;;;19.22;nan;102069.06;5001000;28;19922;-92
2023/05/12 05:22:57;;;;;;;;;;;;;;;19.34;nan;102068.75;5002756;28;19930;-92
2023/05/12 05:25:22;;;;;;;;;;;;;;;19.45;nan;102075.00;5004037;28;20308;-92
2023/05/12 05:27:48;;;;;;;;;;;;;;;19.54;nan;102076.88;5006033;28;19929;-91
2023/05/12 05:30:13;;;;;;;;;;;;;;;19.65;nan;102071.44;5009847;28;20074;-92
2023/05/12 05:32:39;;;;;;;;;;;;;;;19.77;nan;102066.50;5005029;28;20084;-93
2023/05/12 05:35:05;;;;;;;;;;;;;;;19.91;nan;102072.94;5007890;28;19921;-92
2023/05/12 05:37:30;;;;;;;;;;;;;;;20.04;nan;102072.34;5001704;28;20040;-92
2023/05/12 05:39:56;;;;;;;;;;;;;;;20.14;nan;102076.94;5004033;28;19925;-92
2023/05/12 05:42:21;;;;;;;;;;;;;;;20.28;nan;102079.84;5006939;28;19922;-92
2023/05/12 05:44:46;;;;;;;;;;;;;;;20.39;nan;102073.25;5008834;28;19922;-91
2023/05/12 05:47:11;;;;;;;;;;;;;;;20.50;nan;102083.84;4998930;28;19941;-91
2023/05/12 05:49:37;;;;;;;;;;;;;;;20.61;nan;102084.56;5003622;28;19929;-92
2023/05/12 05:52:02;;;;;;;;;;;;;;;20.74;nan;102085.84;5002157;28;20041;-92
2023/05/12 05:54:27;;;;;;;;;;;;;;;20.88;nan;102083.28;5003463;28;19929;-91
2023/05/12 05:56:53;;;;;;;;;;;;;;;21.00;nan;102079.09;5015521;28;19925;-92
2023/05/12 05:59:18;;;;;;;;;;;;;;;21.14;nan;102087.41;5009219;28;20005;-91
2023/05/12 06:01:44;;;;;;;;;;;;;;;21.31;nan;102081.56;5004895;28;20114;-91
2023/05/12 06:04:10;;;;;;;;;;;;;;;21.42;nan;102089.34;5005278;28;20004;-92
2023/05/12 06:06:35;;;;;;;;;;;;;;;21.54;nan;102086.22;5001847;28;19925;-92
2023/05/12 06:09:00;;;;;;;;;;;;;;;21.62;nan;102082.88;5008327;28;20561;-93
2023/05/12 06:11:26;;;;;;;;;;;;;;;21.67;nan;102084.72;5006195;28;20412;-92
2023/05/12 06:13:51;;;;;;;;;;;;;;;21.78;nan;102096.34;5003579;28;19963;-93
2023/05/12 06:16:16;;;;;;;;;;;;;;;21.88;nan;102085.28;5000746;28;20007;-92
2023/05/12 06:18:42;;;;;;;;;;;;;;;22.03;nan;102091.38;5010337;28;20385;-92
2023/05/12 06:21:08;;;;;;;;;;;;;;;22.19;nan;102093.94;5005564;28;19968;-92
2023/05/12 06:23:33;;;;;;;;;;;;;;;22.30;nan;102092.69;5016780;28;19930;-93
2023/05/12 06:25:59;;;;;;;;;;;;;;;22.43;nan;102100.13;5009271;28;19977;-92
2023/05/12 06:28:24;;;;;;;;;;;;;;;22.56;nan;102096.66;5000705;28;20297;-93
2023/05/12 06:30:49;;;;;;;;;;;;;;;22.71;nan;102105.75;5005601;28;20376;-90
2023/05/12 06:33:15;;;;;;;;;;;;;;;22.80;nan;102107.53;5012117;28;19918;-91
2023/05/12 06:35:40;;;;;;;;;;;;;;;22.90;nan;102110.09;5003636;28;19925;-91
2023/05/12 06:38:06;;;;;;;;;;;;;;;23.01;nan;102110.75;5003648;28;19943;-89
2023/05/12 06:40:31;;;;;;;;;;;;;;;23.15;nan;102114.31;4998509;28;19918;-90
2023/05/12 06:42:56;;;;;;;;;;;;;;;23.26;nan;102103.22;5006413;28;19921;-90
2023/05/12 06:45:22;;;;;;;;;;;;;;;23.35;nan;102115.09;5009118;28;19917;-90
2023/05/12 06:47:47;;;;;;;;;;;;;;;23.49;nan;102111.25;5008405;28;20012;-90
2023/05/12 06:50:14;;;;;;;;;;;;;;;23.64;nan;102114.84;4998840;28;19933;-91
2023/05/12 06:52:39;;;;;;;;;;;;;;;23.77;nan;102111.31;5005886;28;19918;-91
2023/05/12 06:55:05;;;;;;;;;;;;;;;23.92;nan;102113.75;5019988;28;20293;-91
2023/05/12 06:57:31;;;;;;;;;;;;;;;24.06;nan;102111.81;5007646;28;19918;-91
2023/05/12 06:59:56;;;;;;;;;;;;;;;24.17;nan;102109.66;5010006;28;19928;-91
2023/05/12 07:02:22;;;;;;;;;;;;;;;24.29;nan;102109.16;5009061;28;19953;-92
2023/05/12 07:04:47;;;;;;;;;;;;;;;24.40;nan;102110.53;5008679;28;19921;-91
2023/05/12 07:07:12;;;;;;;;;;;;;;;24.47;nan;102107.38;5009488;28;19929;-92
2023/05/12 07:09:39;;;;;;;;;;;;;;;24.60;nan;102101.88;5008633;28;20048;-92
2023/05/12 07:12:05;;;;;;;;;;;;;;;24.76;nan;102105.03;5009841;28;19921;-92
2023/05/12 07:14:30;;;;;;;;;;;;;;;24.91;nan;102101.91;5007936;28;19918;-92
2023/05/12 07:16:56;;;;;;;;;;;;;;;25.06;nan;102099.94;5006704;28;19924;-92
2023/05/12 07:19:21;;;;;;;;;;;;;;;25.19;nan;102110.03;5011057;28;19953;-91
2023/05/12 07:21:47;;;;;;;;;;;;;;;25.34;nan;102106.91;5007696;28;19917;-91
2023/05/12 07:24:12;;;;;;;;;;;;;;;25.47;nan;102105.97;5009248;28;19921;-91
2023/05/12 07:26:38;;;;;;;;;;;;;;;25.50;nan;102105.38;5006740;28;19925;-91
2023/05/12 07:29:04;;;;;;;;;;;;;;;25.60;nan;102104.25;5006829;28;20404;-91
2023/05/12 07:31:30;;;;;;;;;;;;;;;25.73;nan;102113.56;5005184;28;20588;-91
2023/05/12 07:33:55;;;;;;;;;;;;;;;25.85;nan;102110.97;5004426;28;20067;-91
2023/05/12 07:36:20;;;;;;;;;;;;;;;25.99;nan;102105.38;5007332;28;19917;-90
2023/05/12 07:38:46;;;;;;;;;;;;;;;26.05;nan;102109.59;5003148;28;19932;-91
2023/05/12 07:41:11;;;;;;;;;;;;;;;26.15;nan;102107.34;5017559;28;19921;-93
2023/05/12 07:43:37;;;;;;;;;;;;;;;26.27;nan;102116.91;5007956;28;20458;-92
2023/05/12 07:46:02;;;;;;;;;;;;;;;26.37;nan;102122.91;5011721;28;19926;-93
2023/05/12 07:48:28;;;;;;;;;;;;;;;26.48;nan;102112.44;5011588;28;19921;-94
2023/05/12 07:50:54;;;;;;;;;;;;;;;26.55;nan;102112.75;4997933;28;19930;-93
2023/05/12 07:53:19;;;;;;;;;;;;;;;26.66;nan;102108.53;5006193;28;19918;-93
2023/05/12 07:55:44;;;;;;;;;;;;;;;26.83;nan;102115.16;5009918;28;20024;-91
2023/05/12 07:58:11;;;;;;;;;;;;;;;26.98;nan;102115.47;5008815;28;20031;-92
2023/05/12 08:00:36;;;;;;;;;;;;;;;27.13;nan;102111.44;5008221;28;19945;-92
2023/05/12 08:03:02;;;;;;;;;;;;;;;27.27;nan;102109.25;5009714;28;19967;-92
2023/05/12 08:05:27;;;;;;;;;;;;;;;27.40;nan;102105.50;5004696;28;19921;-92
2023/05/12 08:07:52;;;;;;;;;;;;;;;27.51;nan;102103.22;5011527;28;19925;-93
2023/05/12 08:10:18;;;;;;;;;;;;;;;27.66;nan;102101.88;5009451;28;19971;-92
2023/05/12 08:12:44;;;;;;;;;;;;;;;27.75;nan;102099.88;5023882;28;20006;-94
2023/05/12 08:15:10;;;;;;;;;;;;;;;27.84;nan;102100.66;5009561;28;19917;-91
2023/05/12 08:17:35;;;;;;;;;;;;;;;27.93;nan;102104.16;5003492;28;20389;-92
2023/05/12 08:20:03;;;;;;;;;;;;;;;28.04;nan;102107.34;5004247;28;19976;-92
2023/05/12 08:22:28;;;;;;;;;;;;;;;28.16;nan;102093.63;5003119;28;19945;-94
2023/05/12 08:24:53;;;;;;;;;;;;;;;28.31;nan;102095.00;5011125;28;19921;-92
2023/05/12 08:27:19;;;;;;;;;;;;;;;28.40;nan;102106.78;5009631;28;19918;-93
2023/05/12 08:29:45;;;;;;;;;;;;;;;28.49;nan;102106.69;5005755;28;19917;-90
2023/05/12 08:32:10;;;;;;;;;;;;;;;28.58;nan;102104.69;5008301;28;19965;-90
2023/05/12 08:34:36;;;;;;;;;;;;;;;28.66;nan;102105.75;5002421;28;20401;-88
2023/05/12 08:37:01;;;;;;;;;;;;;;;28.76;nan;102099.81;5003837;28;19917;-91
2023/05/12 08:39:29;;;;;;;;;;;;;;;28.88;nan;102105.38;5007213;28;19976;-89
2023/05/12 08:41:55;;;;;;;;;;;;;;;28.99;nan;102103.81;5002742;28;19921;-92
2023/05/12 08:44:21;;;;;;;;;;;;;;;29.11;nan;102106.63;5002344;28;19925;-91
2023/05/12 08:46:47;;;;;;;;;;;;;;;29.22;nan;102100.66;5009307;28;19917;-91
2023/05/12 08:49:16;;;;;;;;;;;;;;;29.25;nan;102111.81;5004371;28;19924;-91
2023/05/12 08:51:43;;;;;;;;;;;;;;;29.32;nan;102114.03;5000672;28;19918;-92
2023/05/12 08:54:11;;;;;;;;;;;;;;;29.38;nan;102104.34;5003225;28;19944;-90
2023/05/12 08:56:37;;;;;;;;;;;;;;;29.41;nan;102106.44;5003194;28;20032;-89
2023/05/12 08:59:05;;;;;;;;;;;;;;;29.50;nan;102109.13;4997878;28;19925;-91
2023/05/12 09:01:33;;;;;;;;;;;;;;;29.60;nan;102111.41;5001292;28;20448;-90
2023/05/12 09:03:58;;;;;;;;;;;;;;;29.67;nan;102109.72;5002259;28;19991;-90
2023/05/12 09:06:24;;;;;;;;;;;;;;;29.73;nan;102105.56;5005735;28;20537;-91
2023/05/12 09:08:50;;;;;;;;;;;;;;;29.87;nan;102105.22;5005502;28;20375;-90
2023/05/12 09:11:16;;;;;;;;;;;;;;;29.95;nan;102095.16;5004055;28;19917;-90
2023/05/12 09:13:49;;;;;;;;;;;;;;;30.04;nan;102095.88;5002313;28;19968;-89
2023/05/12 09:16:17;;;;;;;;;;;;;;;30.10;nan;102101.97;5002445;28;19918;-92
2023/05/12 09:19:01;;;;;;;;;;;;;;;30.25;nan;102096.53;5012834;28;19972;-92
2023/05/12 09:21:27;;;;;;;;;;;;;;;30.37;nan;102096.50;5005319;28;19956;-94
2023/05/12 09:23:53;;;;;;;;;;;;;;;30.38;nan;102092.56;5002423;28;19928;-94
2023/05/12 09:26:19;;;;;;;;;;;;;;;30.42;nan;102106.50;5009002;28;19924;-89
2023/05/12 09:28:45;;;;;;;;;;;;;;;30.47;nan;102099.91;5008665;28;19932;-90
2023/05/12 09:31:17;;;;;;;;;;;;;;;30.61;nan;102101.16;4999322;28;20073;-92
2023/05/12 09:33:42;;;;;;;;;;;;;;;30.69;nan;102096.63;5009722;28;19947;-93
2023/05/12 09:36:07;;;;;;;;;;;;;;;30.64;nan;102094.13;4995971;28;19987;-91
2023/05/12 09:38:33;;;;;;;;;;;;;;;30.59;nan;102097.09;4999601;28;19929;-90
2023/05/12 09:40:58;;;;;;;;;;;;;;;30.59;nan;102095.16;5004264;28;19917;-90
2023/05/12 09:43:23;;;;;;;;;;;;;;;30.62;nan;102096.44;5005194;28;19968;-91
2023/05/12 09:45:49;;;;;;;;;;;;;;;30.70;nan;102091.88;5000864;28;19944;-90
2023/05/12 09:48:14;;;;;;;;;;;;;;;30.85;nan;102083.63;5004918;28;19917;-92
2023/05/12 09:50:50;;;;;;;;;;;;;;;30.94;nan;102081.50;5000937;28;19933;-93
2023/05/12 09:53:19;;;;;;;;;;;;;;;31.05;nan;102089.28;4999867;28;19926;-90
2023/05/12 09:55:45;;;;;;;;;;;;;;;31.17;nan;102081.75;5001139;28;20415;-91
2023/05/12 09:58:12;;;;;;;;;;;;;;;31.17;nan;102083.66;5000455;28;20221;-90
2023/05/12 10:00:40;;;;;;;;;;;;;;;31.17;nan;102083.66;4999597;28;20559;-89
2023/05/12 10:03:16;;;;;;;;;;;;;;;31.26;nan;102087.13;4998824;28;19929;-91
2023/05/12 10:05:49;;;;;;;;;;;;;;;31.19;nan;102082.19;4999892;28;20345;-91
2023/05/12 10:08:20;;;;;;;;;;;;;;;31.23;nan;102087.81;5007906;28;19928;-91
2023/05/12 10:10:48;;;;;;;;;;;;;;;31.27;nan;102081.22;5004707;28;19921;-90
2023/05/12 10:13:13;;;;;;;;;;;;;;;31.33;nan;102081.75;5010120;28;19948;-89
2023/05/12 10:15:39;;;;;;;;;;;;;;;31.35;nan;102084.97;5006455;28;19917;-90
2023/05/12 10:18:05;;;;;;;;;;;;;;;31.43;nan;102074.88;5005608;28;19926;-90
2023/05/12 10:20:30;;;;;;;;;;;;;;;31.51;nan;102079.41;5006425;28;19921;-91
2023/05/12 10:22:57;;;;;;;;;;;;;;;31.47;nan;102075.75;5005663;28;19921;-88
2023/05/12 10:25:22;;;;;;;;;;;;;;;31.51;nan;102071.91;4999316;28;20026;-92
2023/05/12 10:27:47;;;;;;;;;;;;;;;31.65;nan;102078.94;4994316;28;19934;-91
2023/05/12 10:30:13;;;;;;;;;;;;;;;31.81;nan;102072.25;5000010;28;19922;-93
2023/05/12 10:32:38;;;;;;;;;;;;;;;31.92;nan;102069.69;4995274;28;19926;-93
2023/05/12 10:35:08;;;;;;;;;;;;;;;32.01;nan;102070.31;5010097;28;20326;-93
2023/05/12 10:37:34;;;;;;;;;;;;;;;32.06;nan;102058.94;5008259;28;20463;-90
2023/05/12 10:40:01;;;;;;;;;;;;;;;32.10;nan;102070.09;5003698;28;20039;-90
2023/05/12 10:42:35;;;;;;;;;;;;;;;32.17;nan;102065.50;5001220;28;20389;-90
2023/05/12 10:45:03;;;;;;;;;;;;;;;32.19;nan;102069.88;5011845;28;19918;-91
2023/05/12 10:47:37;;;;;;;;;;;;;;;32.22;nan;102071.94;5005811;28;19921;-91
2023/05/12 10:50:03;;;;;;;;;;;;;;;32.28;nan;102062.97;5005297;28;19975;-92
2023/05/12 10:52:28;;;;;;;;;;;;;;;32.27;nan;102057.78;4999477;28;19921;-89
2023/05/12 10:55:00;;;;;;;;;;;;;;;32.24;nan;102059.31;5005613;28;20397;-93
2023/05/12 10:57:27;;;;;;;;;;;;;;;32.30;nan;102046.78;4997053;28;19922;-94
2023/05/12 10:59:56;;;;;;;;;;;;;;;32.42;nan;102057.72;4992701;28;19929;-92
2023/05/12 11:02:29;;;;;;;;;;;;;;;32.47;nan;102051.06;4998572;28;19925;-91
2023/05/12 11:05:02;;;;;;;;;;;;;;;32.44;nan;102058.16;4998977;28;19960;-88
2023/05/12 11:07:28;;;;;;;;;;;;;;;32.52;nan;102058.31;5007261;28;19921;-93
2023/05/12 11:09:55;;;;;;;;;;;;;;;32.63;nan;102056.53;4996660;28;19921;-94
2023/05/12 11:12:20;;;;;;;;;;;;;;;32.76;nan;102058.78;4998764;28;20416;-90
2023/05/12 11:14:46;;;;;;;;;;;;;;;32.86;nan;102039.94;4999133;28;19979;-91
2023/05/12 11:17:12;;;;;;;;;;;;;;;32.95;nan;102048.81;4995833;28;19928;-90
2023/05/12 11:19:38;;;;;;;;;;;;;;;32.89;nan;102044.75;4996752;28;20381;-92
2023/05/12 11:22:08;;;;;;;;;;;;;;;32.84;nan;102054.16;5001720;28;19941;-91
2023/05/12 11:24:33;;;;;;;;;;;;;;;32.83;nan;102058.13;4997953;28;20032;-89
2023/05/12 11:26:59;;;;;;;;;;;;;;;32.79;nan;102051.69;4998962;28;20369;-91
2023/05/12 11:29:24;;;;;;;;;;;;;;;32.90;nan;102047.16;5000009;28;20475;-90
2023/05/12 11:31:50;;;;;;;;;;;;;;;33.12;nan;102059.44;4996554;28;19917;-92
2023/05/12 11:34:19;;;;;;;;;;;;;;;33.22;nan;102053.28;5005066;28;19948;-91
2023/05/12 11:36:45;;;;;;;;;;;;;;;33.28;nan;102056.53;4996620;28;20023;-88
2023/05/12 11:39:21;;;;;;;;;;;;;;;33.33;nan;102054.25;4998587;28;20713;-89
2023/05/12 11:41:47;;;;;;;;;;;;;;;33.32;nan;102062.94;5001758;28;20416;-90
2023/05/12 11:44:13;;;;;;;;;;;;;;;33.37;nan;102050.72;4998941;28;19926;-90
2023/05/12 11:46:38;;;;;;;;;;;;;;;33.44;nan;102075.88;5001244;28;20466;-91
2023/05/12 11:49:09;;;;;;;;;;;;;;;33.32;nan;102065.72;5005990;28;20366;-88
2023/05/12 11:51:35;;;;;;;;;;;;;;;33.36;nan;102061.03;4998634;28;20024;-88
2023/05/12 11:54:00;;;;;;;;;;;;;;;33.50;nan;102064.03;4997333;28;20032;-89
2023/05/12 11:56:25;;;;;;;;;;;;;;;33.55;nan;102060.13;5000699;28;19983;-91
2023/05/12 11:58:55;;;;;;;;;;;;;;;33.60;nan;102059.84;4996555;28;19922;-88
2023/05/12 12:01:20;;;;;;;;;;;;;;;33.65;nan;102070.63;4996199;28;19921;-90
2023/05/12 12:03:49;;;;;;;;;;;;;;;33.60;nan;102051.50;5002916;28;20309;-89
2023/05/12 12:06:15;;;;;;;;;;;;;;;33.61;nan;102055.88;5002469;28;19929;-91
2023/05/12 12:08:58;;;;;;;;;;;;;;;33.61;nan;102061.44;4997999;28;19925;-90
2023/05/12 12:11:29;;;;;;;;;;;;;;;33.60;nan;102057.06;4998280;28;19928;-88
2023/05/12 12:13:57;;;;;;;;;;;;;;;33.69;nan;102056.78;4998514;28;19925;-89
2023/05/12 12:16:26;;;;;;;;;;;;;;;33.65;nan;102067.84;4999103;28;19928;-91
2023/05/12 12:18:52;;;;;;;;;;;;;;;33.57;nan;102053.03;5000330;28;20024;-90
2023/05/12 12:21:17;;;;;;;;;;;;;;;33.67;nan;102053.56;4991652;28;19921;-87
2023/05/12 12:23:43;;;;;;;;;;;;;;;33.75;nan;102058.84;4999335;28;19921;-87
2023/05/12 12:26:08;;;;;;;;;;;;;;;33.76;nan;102043.81;5001644;28;19927;-91
2023/05/12 12:28:34;;;;;;;;;;;;;;;33.78;nan;102057.31;4998559;28;19956;-91
2023/05/12 12:30:59;;;;;;;;;;;;;;;33.79;nan;102061.69;5001762;28;19971;-91
2023/05/12 12:33:25;;;;;;;;;;;;;;;33.83;nan;102049.44;5004036;28;19921;-90
2023/05/12 12:35:50;;;;;;;;;;;;;;;33.78;nan;102052.56;5001297;28;20449;-93
2023/05/12 12:38:15;;;;;;;;;;;;;;;33.62;nan;102049.16;5001487;28;19926;-90
2023/05/12 12:40:41;;;;;;;;;;;;;;;33.53;nan;102062.50;5000498;28;19941;-91
2023/05/12 12:43:07;;;;;;;;;;;;;;;33.53;nan;102059.72;5000910;28;19928;-92
2023/05/12 12:45:32;;;;;;;;;;;;;;;33.51;nan;102064.84;5002177;28;19921;-90
2023/05/12 12:47:58;;;;;;;;;;;;;;;33.55;nan;102060.13;5001345;28;19921;-91
2023/05/12 12:50:23;;;;;;;;;;;;;;;33.60;nan;102059.84;5003351;28;20379;-92
2023/05/12 12:52:49;;;;;;;;;;;;;;;33.66;nan;102058.34;5001607;28;19925;-91